Time;durP1;ratioP1;P1;durP2;ratioP2;P2;SDS_P1;SDS_P2;PMS_P1;PMS_P2;Temp;Humidity;BMP_temperature;BMP_pressure;BME280_temperature;BME280_humidity;BME280_pressure;Samples;Min_cycle;Max_cycle;Signal;HPM_P1;HPM_P2
2022/05/16 00:00:51;;;;;;;13.23;5.13;;;13.00;99.90;;;;;;4984472;28;20073;-68
2022/05/16 00:03:17;;;;;;;12.75;5.95;;;13.00;99.90;;;;;;4986244;28;20194;-68
2022/05/16 00:05:42;;;;;;;15.48;4.90;;;13.10;99.90;;;;;;4995660;28;20176;-67
2022/05/16 00:08:08;;;;;;;14.88;5.68;;;13.10;99.90;;;;;;4982040;28;20049;-69
2022/05/16 00:10:34;;;;;;;11.68;5.10;;;13.10;99.90;;;;;;4982771;28;20047;-69
2022/05/16 00:13:01;;;;;;;14.27;5.28;;;13.10;99.90;;;;;;4985301;28;20574;-69
2022/05/16 00:15:28;;;;;;;14.65;5.03;;;13.10;99.90;;;;;;4996906;28;20177;-67
2022/05/16 00:17:53;;;;;;;14.73;4.72;;;13.10;99.90;;;;;;4991589;28;20049;-68
2022/05/16 00:20:19;;;;;;;10.65;5.22;;;13.10;99.90;;;;;;4988699;28;20038;-67
2022/05/16 00:22:45;;;;;;;10.20;4.82;;;13.10;99.90;;;;;;4992430;28;20137;-68
2022/05/16 00:25:15;;;;;;;10.65;4.55;;;13.10;99.90;;;;;;4990022;28;20069;-68
2022/05/16 00:27:41;;;;;;;8.00;4.47;;;13.30;99.90;;;;;;4989795;28;20527;-68
2022/05/16 00:30:09;;;;;;;10.05;4.80;;;13.20;99.90;;;;;;4989380;28;20047;-67
2022/05/16 00:32:35;;;;;;;;;;;13.20;99.90;;;;;;4988508;28;20035;-67
2022/05/16 00:35:02;;;;;;;11.27;4.75;;;13.20;99.90;;;;;;4990065;28;19937;-69
2022/05/16 00:37:27;;;;;;;12.25;4.97;;;13.20;99.90;;;;;;4992028;28;20445;-68
2022/05/16 00:39:53;;;;;;;11.95;4.90;;;13.20;99.90;;;;;;4993938;28;20038;-68
2022/05/16 00:42:19;;;;;;;11.85;4.80;;;13.20;99.90;;;;;;4992952;28;20121;-68
2022/05/16 00:44:46;;;;;;;8.13;4.30;;;13.20;99.90;;;;;;4989831;28;20096;-68
2022/05/16 00:47:11;;;;;;;11.82;4.78;;;13.20;99.90;;;;;;4986824;28;20148;-68
2022/05/16 00:49:41;;;;;;;11.82;4.72;;;13.20;99.90;;;;;;4984336;28;20133;-69
2022/05/16 00:52:08;;;;;;;11.13;4.45;;;13.20;99.90;;;;;;4989386;28;20046;-68
2022/05/16 00:54:44;;;;;;;9.15;3.97;;;13.20;99.90;;;;;;4988928;28;20054;-68
2022/05/16 00:57:15;;;;;;;12.18;4.70;;;13.20;99.90;;;;;;4992185;28;20042;-67
2022/05/16 00:59:55;;;;;;;9.85;4.18;;;13.20;99.90;;;;;;4987615;28;20048;-67
2022/05/16 01:05:08;;;;;;;6.70;4.13;;;13.40;99.90;;;;;;4973930;28;20069;-68
2022/05/16 01:07:37;;;;;;;11.68;3.97;;;13.20;99.90;;;;;;4972978;28;20050;-69
2022/05/16 01:10:04;;;;;;;14.82;4.07;;;13.30;99.90;;;;;;4981291;28;20042;-68
2022/05/16 01:12:39;;;;;;;11.52;4.28;;;13.20;99.90;;;;;;4989258;28;20034;-68
2022/05/16 01:15:10;;;;;;;11.48;3.70;;;13.20;99.90;;;;;;4986641;28;20069;-68
2022/05/16 01:17:37;;;;;;;7.65;3.53;;;13.10;99.90;;;;;;4987659;28;21194;-69
2022/05/16 01:20:04;;;;;;;7.88;3.80;;;13.10;99.90;;;;;;4980506;28;20046;-68
2022/05/16 01:22:35;;;;;;;7.95;4.07;;;13.10;99.90;;;;;;4985129;28;20046;-68
2022/05/16 01:25:09;;;;;;;8.05;3.40;;;13.10;99.90;;;;;;4994520;28;20052;-68
2022/05/16 01:27:44;;;;;;;8.25;3.65;;;13.10;99.90;;;;;;4984929;28;20069;-68
2022/05/16 01:30:11;;;;;;;7.55;3.47;;;13.10;99.90;;;;;;4983439;28;20035;-68
2022/05/16 01:32:37;;;;;;;7.50;3.35;;;13.00;99.90;;;;;;4987486;28;20061;-68
2022/05/16 01:35:03;;;;;;;9.43;3.50;;;13.00;99.90;;;;;;4988292;28;20041;-67
2022/05/16 01:38:18;;;;;;;7.32;3.53;;;13.00;99.90;;;;;;4985566;28;20046;-68
2022/05/16 01:40:14;;;;;;;7.03;2.72;;;13.00;99.90;;;;;;4988529;28;20061;-69
2022/05/16 01:42:40;;;;;;;10.82;3.60;;;12.90;99.90;;;;;;4982263;28;20792;-68
2022/05/16 01:45:06;;;;;;;9.23;3.40;;;12.80;99.90;;;;;;4985012;28;20039;-67
2022/05/16 01:47:33;;;;;;;9.73;3.38;;;12.80;99.90;;;;;;4977821;28;20137;-68
2022/05/16 01:49:59;;;;;;;6.45;3.30;;;12.80;99.90;;;;;;4986811;28;20052;-67
2022/05/16 01:52:25;;;;;;;8.77;3.40;;;12.80;99.90;;;;;;4984162;28;20043;-68
2022/05/16 01:54:50;;;;;;;9.27;3.28;;;12.80;99.90;;;;;;4992840;28;20034;-68
2022/05/16 01:57:17;;;;;;;8.50;3.33;;;12.80;99.90;;;;;;4986633;28;20719;-68
2022/05/16 01:59:42;;;;;;;6.60;2.97;;;12.70;99.90;;;;;;4985600;28;20121;-68
2022/05/16 02:02:08;;;;;;;8.30;3.25;;;12.70;99.90;;;;;;5001674;28;20129;-68
2022/05/16 02:04:34;;;;;;;7.25;3.35;;;12.70;99.90;;;;;;4987303;28;20500;-68
2022/05/16 02:06:59;;;;;;;6.97;2.65;;;12.70;99.90;;;;;;4986267;28;20038;-68
2022/05/16 02:09:26;;;;;;;6.05;2.90;;;12.60;99.90;;;;;;4990002;28;20042;-68
2022/05/16 02:11:51;;;;;;;7.07;3.00;;;12.60;99.90;;;;;;4992650;28;20097;-67
2022/05/16 02:14:17;;;;;;;8.43;2.88;;;12.60;99.90;;;;;;4977102;28;20070;-68
2022/05/16 02:16:42;;;;;;;5.82;2.30;;;12.60;99.90;;;;;;4979923;28;20481;-68
2022/05/16 02:19:08;;;;;;;6.63;3.25;;;12.50;99.90;;;;;;4978597;28;20039;-68
2022/05/16 02:27:02;;;;;;;6.50;2.72;;;12.50;99.90;;;;;;4988295;28;20488;-68
2022/05/16 02:29:28;;;;;;;6.15;2.80;;;12.40;99.90;;;;;;4992249;28;20042;-69
2022/05/16 02:31:54;;;;;;;5.63;2.40;;;12.40;99.90;;;;;;4990225;28;20468;-68
2022/05/16 02:34:20;;;;;;;5.18;2.22;;;12.40;99.90;;;;;;4994406;28;20082;-69
2022/05/16 02:36:46;;;;;;;6.95;2.80;;;12.40;99.90;;;;;;4992789;28;20077;-68
2022/05/16 02:39:13;;;;;;;8.02;2.60;;;12.30;99.90;;;;;;4983001;28;20042;-68
2022/05/16 02:41:39;;;;;;;6.47;2.67;;;12.50;99.90;;;;;;4991374;28;20042;-68
2022/05/16 02:44:05;;;;;;;3.83;2.35;;;12.30;99.90;;;;;;4990744;28;20086;-68
2022/05/16 02:46:31;;;;;;;8.00;2.83;;;12.30;99.90;;;;;;4994363;28;20473;-68
2022/05/16 02:48:57;;;;;;;5.93;2.90;;;12.30;99.90;;;;;;4989120;28;20105;-67
2022/05/16 02:51:23;;;;;;;9.20;2.45;;;12.20;99.90;;;;;;4981083;28;20048;-69
2022/05/16 02:53:48;;;;;;;5.00;2.70;;;12.20;99.90;;;;;;4986914;28;20038;-68
2022/05/16 02:56:14;;;;;;;4.97;2.50;;;12.20;99.90;;;;;;4989156;28;20057;-69
2022/05/16 02:58:40;;;;;;;8.30;3.10;;;12.20;99.90;;;;;;4983379;28;20042;-68
2022/05/16 03:01:07;;;;;;;5.93;2.72;;;12.20;99.90;;;;;;4992408;28;20460;-68
2022/05/16 03:03:32;;;;;;;6.53;2.80;;;12.20;99.90;;;;;;4993586;28;20130;-67
2022/05/16 03:05:58;;;;;;;4.72;2.55;;;12.10;99.90;;;;;;4980511;28;20118;-68
2022/05/16 03:08:24;;;;;;;5.10;2.58;;;12.10;99.90;;;;;;4971378;28;20042;-67
2022/05/16 03:10:50;;;;;;;7.57;2.80;;;12.10;99.90;;;;;;4994660;28;20046;-69
2022/05/16 03:13:15;;;;;;;7.43;2.50;;;12.00;99.90;;;;;;4980872;28;20044;-68
2022/05/16 03:15:41;;;;;;;8.50;2.55;;;12.00;99.90;;;;;;4987375;28;20042;-69
2022/05/16 03:18:07;;;;;;;6.13;2.75;;;12.00;99.90;;;;;;4989873;28;20046;-68
2022/05/16 03:20:32;;;;;;;5.60;2.80;;;12.00;99.90;;;;;;4980109;28;20051;-68
2022/05/16 03:22:58;;;;;;;6.38;2.85;;;12.00;99.90;;;;;;4982893;28;20374;-68
2022/05/16 03:25:24;;;;;;;6.93;2.13;;;12.00;99.90;;;;;;4989296;28;20038;-67
2022/05/16 03:27:49;;;;;;;5.85;2.35;;;11.90;99.90;;;;;;4980870;28;20340;-68
2022/05/16 03:30:15;;;;;;;5.72;2.58;;;11.90;99.90;;;;;;4992074;28;20492;-68
2022/05/16 03:32:41;;;;;;;6.10;2.67;;;11.90;99.90;;;;;;4991402;28;20154;-69
2022/05/16 03:35:07;;;;;;;7.60;2.67;;;11.80;99.90;;;;;;4979520;28;20034;-67
2022/05/16 03:37:33;;;;;;;13.68;3.22;;;11.80;99.90;;;;;;4988492;28;20038;-68
2022/05/16 03:42:43;;;;;;;6.68;2.83;;;11.80;99.90;;;;;;4981934;28;20066;-68
2022/05/16 03:45:09;;;;;;;5.25;2.50;;;11.80;99.90;;;;;;4992562;28;20405;-68
2022/05/16 03:47:34;;;;;;;4.32;2.30;;;11.80;99.90;;;;;;4985888;28;20049;-68
2022/05/16 03:50:00;;;;;;;6.47;2.35;;;11.70;99.90;;;;;;4990833;28;20030;-67
2022/05/16 03:52:26;;;;;;;6.75;2.50;;;11.70;99.90;;;;;;4990883;28;20034;-67
2022/05/16 03:54:52;;;;;;;4.82;2.72;;;11.70;99.90;;;;;;4988494;28;20040;-67
2022/05/16 03:57:17;;;;;;;4.72;2.50;;;11.70;99.90;;;;;;4988628;28;20415;-68
2022/05/16 03:59:43;;;;;;;7.28;2.65;;;11.70;99.90;;;;;;4986065;28;20042;-67
2022/05/16 04:02:08;;;;;;;5.97;2.75;;;11.70;99.90;;;;;;4984848;28;20045;-68
2022/05/16 04:04:34;;;;;;;5.57;2.42;;;11.70;99.90;;;;;;4980305;28;20283;-68
2022/05/16 04:07:00;;;;;;;4.45;2.70;;;11.70;99.90;;;;;;4974546;28;20057;-68
2022/05/16 04:09:26;;;;;;;5.82;2.58;;;11.70;99.90;;;;;;4989416;28;20042;-68
2022/05/16 04:11:52;;;;;;;5.15;2.50;;;11.70;99.90;;;;;;4990543;28;20030;-67
2022/05/16 04:14:17;;;;;;;6.35;2.58;;;11.70;99.90;;;;;;4991241;28;20038;-67
2022/05/16 04:16:43;;;;;;;4.60;2.90;;;11.70;99.90;;;;;;4990418;28;20477;-68
2022/05/16 04:19:08;;;;;;;4.55;2.60;;;11.70;99.90;;;;;;4986235;28;20039;-70
2022/05/16 04:21:38;;;;;;;7.18;3.00;;;11.70;99.90;;;;;;4985387;28;20452;-69
2022/05/16 04:24:05;;;;;;;8.45;2.80;;;11.70;99.90;;;;;;4986395;28;20046;-69
2022/05/16 04:26:32;;;;;;;7.43;2.50;;;11.70;99.90;;;;;;4990971;28;20043;-69
2022/05/16 04:28:57;;;;;;;3.83;2.38;;;11.80;99.90;;;;;;4986884;28;20370;-68
2022/05/16 04:31:24;;;;;;;3.78;2.60;;;11.80;99.90;;;;;;4991018;28;20069;-68
2022/05/16 04:33:50;;;;;;;9.07;3.00;;;11.80;99.90;;;;;;4982811;28;20066;-68
2022/05/16 04:36:15;;;;;;;6.60;2.50;;;11.80;99.90;;;;;;4988247;28;20101;-68
2022/05/16 04:38:41;;;;;;;6.28;2.42;;;11.80;99.90;;;;;;4982735;28;20117;-67
2022/05/16 04:43:51;;;;;;;5.78;2.67;;;11.90;99.90;;;;;;4986841;28;20047;-68
2022/05/16 04:46:17;;;;;;;6.45;2.90;;;11.90;99.90;;;;;;4986520;28;20392;-68
2022/05/16 04:48:43;;;;;;;6.75;2.75;;;11.90;99.90;;;;;;4990488;28;20479;-67
2022/05/16 04:51:10;;;;;;;6.85;3.08;;;12.00;99.90;;;;;;4982666;28;20354;-67
2022/05/16 04:53:35;;;;;;;4.47;2.70;;;12.00;99.90;;;;;;4980995;28;20050;-68
2022/05/16 04:56:01;;;;;;;7.50;2.78;;;12.00;99.90;;;;;;4987632;28;20132;-69
2022/05/16 04:58:27;;;;;;;9.43;3.20;;;12.00;99.90;;;;;;4990695;28;20053;-69
2022/05/16 05:00:53;;;;;;;7.35;2.70;;;12.10;99.90;;;;;;4989897;28;20039;-68
2022/05/16 05:03:19;;;;;;;7.63;3.20;;;12.20;99.90;;;;;;4988427;28;20054;-68
2022/05/16 05:05:45;;;;;;;4.82;2.67;;;12.20;99.90;;;;;;4985292;28;20420;-68
2022/05/16 05:08:11;;;;;;;8.52;3.13;;;12.30;99.90;;;;;;4987832;28;20051;-67
2022/05/16 05:16:17;;;;;;;4.07;2.45;;;12.50;99.90;;;;;;4979937;28;20046;-69
2022/05/16 05:18:43;;;;;;;7.30;2.97;;;12.60;99.90;;;;;;4985736;28;20089;-68
2022/05/16 05:21:10;;;;;;;6.90;2.70;;;12.70;99.90;;;;;;4983160;28;20556;-69
2022/05/16 05:23:38;;;;;;;8.55;3.15;;;12.70;99.90;;;;;;4984189;28;20061;-68
2022/05/16 05:26:06;;;;;;;8.13;2.53;;;12.70;99.90;;;;;;4983208;28;20547;-67
2022/05/16 05:28:33;;;;;;;;;;;12.70;99.90;;;;;;4981759;28;20053;-68
2022/05/16 05:30:59;;;;;;;7.85;3.20;;;12.70;99.90;;;;;;4984187;28;20020;-68
2022/05/16 05:33:25;;;;;;;5.72;2.67;;;12.70;99.90;;;;;;4986224;28;20345;-68
2022/05/16 05:35:50;;;;;;;7.13;2.85;;;12.80;99.90;;;;;;4991773;28;20069;-68
2022/05/16 05:38:18;;;;;;;7.40;2.80;;;12.80;99.90;;;;;;4992436;28;20489;-69
2022/05/16 05:40:44;;;;;;;7.77;2.90;;;12.90;99.90;;;;;;4989944;28;20050;-68
2022/05/16 05:43:09;;;;;;;6.20;2.92;;;12.90;99.90;;;;;;4988890;28;20352;-69
2022/05/16 05:45:36;;;;;;;5.35;2.92;;;13.00;99.90;;;;;;4991424;28;20574;-68
2022/05/16 05:48:02;;;;;;;5.60;2.65;;;13.10;99.90;;;;;;4994193;28;20034;-68
2022/05/16 05:50:28;;;;;;;7.97;3.35;;;13.10;99.90;;;;;;4989923;28;20047;-69
2022/05/16 05:52:54;;;;;;;7.68;2.80;;;13.10;99.90;;;;;;4989029;28;20038;-69
2022/05/16 05:55:20;;;;;;;7.70;2.50;;;13.20;99.90;;;;;;4992262;28;20475;-68
2022/05/16 05:57:46;;;;;;;6.00;2.90;;;13.30;99.90;;;;;;4988857;28;21754;-69
2022/05/16 06:00:13;;;;;;;10.55;2.97;;;13.40;99.90;;;;;;4985282;28;20046;-68
2022/05/16 06:02:40;;;;;;;9.65;3.00;;;13.50;99.90;;;;;;4989967;28;20046;-67
2022/05/16 06:05:12;;;;;;;9.07;3.43;;;13.50;99.90;;;;;;4983600;28;20571;-69
2022/05/16 06:07:38;;;;;;;7.30;2.88;;;13.50;99.90;;;;;;4990816;28;20038;-69
2022/05/16 06:10:06;;;;;;;9.30;3.10;;;13.40;99.90;;;;;;4984487;28;20485;-68
2022/05/16 06:12:31;;;;;;;13.77;3.47;;;13.50;99.90;;;;;;4987435;28;20043;-70
2022/05/16 06:14:57;;;;;;;9.45;3.03;;;13.50;99.90;;;;;;4993408;28;20547;-69
2022/05/16 06:17:23;;;;;;;5.40;2.88;;;13.50;99.90;;;;;;4995050;28;20493;-70
2022/05/16 06:19:49;;;;;;;6.30;2.80;;;13.70;99.90;;;;;;4994102;28;20065;-70
2022/05/16 06:22:15;;;;;;;8.00;3.17;;;13.80;99.90;;;;;;4993741;28;20469;-69
2022/05/16 06:27:28;;;;;;;11.77;3.00;;;13.80;99.90;;;;;;5001973;28;20080;-69
2022/05/16 06:29:55;;;;;;;10.32;3.55;;;13.90;99.90;;;;;;4986342;28;20141;-68
2022/05/16 06:32:21;;;;;;;7.75;2.80;;;13.90;99.90;;;;;;4990497;28;20038;-69
2022/05/16 06:34:47;;;;;;;10.07;3.25;;;14.00;99.90;;;;;;4991838;28;20038;-68
2022/05/16 06:37:13;;;;;;;6.30;3.13;;;14.10;99.90;;;;;;4984539;28;20046;-68
2022/05/16 06:39:39;;;;;;;9.35;3.15;;;14.40;99.90;;;;;;4989033;28;21043;-69
2022/05/16 06:42:05;;;;;;;6.38;2.95;;;14.60;99.90;;;;;;4985411;28;20405;-69
2022/05/16 06:44:30;;;;;;;6.05;2.67;;;14.80;99.90;;;;;;4982493;28;20125;-68
2022/05/16 06:46:56;;;;;;;10.38;2.95;;;15.00;99.90;;;;;;4983122;28;20064;-68
2022/05/16 06:49:22;;;;;;;5.40;3.00;;;15.20;99.90;;;;;;4988194;28;20481;-69
2022/05/16 06:51:48;;;;;;;6.53;2.88;;;15.30;99.90;;;;;;4991277;28;20528;-69
2022/05/16 06:54:14;;;;;;;5.75;2.88;;;15.50;99.90;;;;;;4984023;28;20413;-70
2022/05/16 06:56:39;;;;;;;13.73;3.22;;;15.80;99.90;;;;;;4986095;28;20046;-67
2022/05/16 06:59:05;;;;;;;8.93;3.53;;;16.00;99.90;;;;;;4989963;28;20042;-69
2022/05/16 07:01:31;;;;;;;6.95;2.83;;;16.20;99.90;;;;;;4995507;28;20050;-69
2022/05/16 07:03:56;;;;;;;6.15;2.60;;;16.30;99.90;;;;;;5001109;28;20111;-70
2022/05/16 07:06:22;;;;;;;9.55;3.00;;;16.40;99.90;;;;;;4991914;28;20038;-69
2022/05/16 07:08:47;;;;;;;11.05;3.70;;;16.50;99.90;;;;;;4996710;28;20067;-68
2022/05/16 07:11:13;;;;;;;8.30;3.03;;;16.60;99.90;;;;;;5013119;28;20054;-68
2022/05/16 07:13:39;;;;;;;7.45;2.85;;;16.80;99.90;;;;;;5006090;28;20596;-69
2022/05/16 07:16:05;;;;;;;11.15;3.40;;;16.90;99.90;;;;;;4978011;28;20034;-70
2022/05/16 07:18:30;;;;;;;11.05;3.72;;;16.90;99.90;;;;;;4994574;28;20121;-68
2022/05/16 07:20:58;;;;;;;14.35;3.55;;;16.90;99.90;;;;;;4987621;28;20043;-69
2022/05/16 07:23:24;;;;;;;8.43;3.05;;;17.00;99.90;;;;;;4981991;28;20412;-68
2022/05/16 07:28:34;;;;;;;8.13;3.03;;;16.90;99.90;;;;;;4984679;28;20417;-70
2022/05/16 07:31:00;;;;;;;6.95;3.20;;;16.90;99.90;;;;;;4989688;28;20509;-69
2022/05/16 07:33:27;;;;;;;14.20;3.70;;;17.10;99.90;;;;;;4990429;28;20046;-69
2022/05/16 07:35:54;;;;;;;6.05;3.25;;;17.20;99.90;;;;;;4998818;28;20480;-69
2022/05/16 07:38:20;;;;;;;9.15;2.78;;;17.50;99.90;;;;;;4991648;28;20117;-68
2022/05/16 07:40:48;;;;;;;9.63;3.25;;;17.90;99.90;;;;;;4991743;28;20153;-69
2022/05/16 07:43:14;;;;;;;6.67;2.77;;;17.90;99.90;;;;;;4989934;28;20042;-70
2022/05/16 07:45:39;;;;;;;7.90;3.00;;;18.20;99.90;;;;;;4989917;28;20042;-69
2022/05/16 07:48:05;;;;;;;6.72;3.08;;;18.40;99.20;;;;;;4985024;28;20045;-68
2022/05/16 07:50:33;;;;;;;9.25;2.80;;;18.50;99.80;;;;;;4993119;28;20034;-68
2022/05/16 07:52:59;;;;;;;13.25;3.10;;;18.50;99.40;;;;;;4978239;28;20524;-68
2022/05/16 07:55:26;;;;;;;7.57;2.63;;;18.60;99.10;;;;;;4992366;28;20081;-69
2022/05/16 07:57:52;;;;;;;13.37;3.53;;;18.70;99.20;;;;;;4989898;28;20038;-67
2022/05/16 08:00:20;;;;;;;11.27;2.83;;;18.90;99.10;;;;;;4989470;28;20034;-70
2022/05/16 08:02:45;;;;;;;6.15;2.67;;;19.00;98.70;;;;;;4989076;28;20400;-69
2022/05/16 08:05:14;;;;;;;7.30;3.10;;;19.20;98.40;;;;;;4995334;28;20046;-70
2022/05/16 08:10:31;;;;;;;9.27;2.58;;;19.40;98.00;;;;;;4976641;28;20061;-69
2022/05/16 08:13:06;;;;;;;10.52;3.38;;;19.80;97.50;;;;;;4973661;28;20503;-68
2022/05/16 08:15:33;;;;;;;13.63;3.72;;;19.70;97.30;;;;;;4991624;28;20073;-67
2022/05/16 08:18:02;;;;;;;18.25;3.22;;;19.70;96.90;;;;;;4991779;28;20044;-68
2022/05/16 08:20:29;;;;;;;12.65;3.25;;;19.90;96.40;;;;;;4990888;28;20392;-68
2022/05/16 08:22:55;;;;;;;11.15;3.13;;;20.00;96.10;;;;;;4992936;28;20046;-70
2022/05/16 08:25:21;;;;;;;13.43;3.97;;;20.10;96.30;;;;;;4991938;28;20038;-69
2022/05/16 08:27:50;;;;;;;8.48;3.28;;;20.20;96.20;;;;;;5008009;28;20072;-67
2022/05/16 08:30:16;;;;;;;18.75;3.13;;;20.30;95.90;;;;;;4996682;28;20072;-68
2022/05/16 08:32:43;;;;;;;11.68;3.28;;;20.50;95.80;;;;;;4986043;28;20093;-69
2022/05/16 08:35:11;;;;;;;9.10;3.20;;;20.70;95.70;;;;;;4982159;28;20043;-69
2022/05/16 08:40:24;;;;;;;9.30;2.70;;;20.80;95.10;;;;;;4980564;28;20055;-69
2022/05/16 08:42:54;;;;;;;12.02;2.95;;;21.10;95.00;;;;;;4988682;28;20052;-68
2022/05/16 08:45:49;;;;;;;9.05;3.30;;;21.30;94.90;;;;;;4993297;28;20033;-68
2022/05/16 08:48:37;;;;;;;9.18;2.80;;;21.40;94.40;;;;;;4993062;28;20058;-68
2022/05/16 08:51:20;;;;;;;11.60;2.85;;;21.60;93.40;;;;;;4990385;28;20091;-69
2022/05/16 08:53:50;;;;;;;9.43;3.08;;;21.80;93.50;;;;;;4989426;28;20046;-70
2022/05/16 08:56:26;;;;;;;12.88;3.40;;;21.90;92.90;;;;;;4986575;28;20440;-70
2022/05/16 08:59:01;;;;;;;17.38;3.35;;;22.10;92.90;;;;;;4992269;28;20053;-68
2022/05/16 09:01:33;;;;;;;19.23;3.13;;;22.40;92.40;;;;;;4994038;28;20049;-70
2022/05/16 09:04:02;;;;;;;11.30;3.30;;;22.50;92.20;;;;;;4988646;28;20046;-67
2022/05/16 09:06:38;;;;;;;13.75;3.00;;;22.60;91.80;;;;;;4990554;28;20492;-67
2022/05/16 09:09:13;;;;;;;17.50;3.33;;;22.80;91.50;;;;;;4991818;28;20046;-69
2022/05/16 09:12:03;;;;;;;8.85;2.95;;;23.00;91.30;;;;;;4990392;28;20089;-69
2022/05/16 09:14:51;;;;;;;9.18;3.13;;;23.00;89.30;;;;;;4977182;28;20118;-68
2022/05/16 09:17:58;;;;;;;11.32;3.35;;;23.00;88.80;;;;;;4991822;28;20046;-69
2022/05/16 09:20:30;;;;;;;10.77;2.85;;;23.00;90.10;;;;;;4993111;28;20046;-69
2022/05/16 09:23:28;;;;;;;11.85;3.10;;;23.00;90.30;;;;;;5002819;28;20105;-69
2022/05/16 09:26:34;;;;;;;12.68;3.38;;;22.90;90.10;;;;;;4978920;28;20035;-68
2022/05/16 09:29:14;;;;;;;8.88;3.00;;;22.70;88.90;;;;;;4994337;28;20112;-70
2022/05/16 09:31:44;;;;;;;11.45;2.90;;;22.60;89.10;;;;;;4986993;28;20053;-69
2022/05/16 09:34:12;;;;;;;18.35;3.88;;;22.50;89.50;;;;;;4987094;28;20482;-68
2022/05/16 09:36:42;;;;;;;7.88;3.00;;;22.50;89.60;;;;;;4991421;28;20567;-69
2022/05/16 09:39:10;;;;;;;10.70;3.35;;;22.60;89.90;;;;;;4996044;28;20121;-69
2022/05/16 09:41:59;;;;;;;7.60;3.20;;;22.80;89.40;;;;;;4992924;28;20042;-68
2022/05/16 09:44:24;;;;;;;14.32;2.78;;;22.80;87.90;;;;;;4992317;28;20093;-68
2022/05/16 09:46:50;;;;;;;12.98;3.78;;;22.90;88.40;;;;;;4981744;28;20047;-67
2022/05/16 09:49:27;;;;;;;13.98;3.83;;;22.90;87.40;;;;;;4991748;28;20530;-71
2022/05/16 09:51:57;;;;;;;12.35;3.00;;;23.10;88.00;;;;;;4987782;28;20069;-69
2022/05/16 09:54:28;;;;;;;7.68;2.85;;;23.50;88.70;;;;;;4980842;28;20097;-69
2022/05/16 09:57:03;;;;;;;10.52;2.97;;;24.00;86.30;;;;;;4988761;28;20701;-69
2022/05/16 09:59:47;;;;;;;12.93;3.53;;;24.20;84.30;;;;;;4985315;28;20101;-69
2022/05/16 10:02:39;;;;;;;13.73;2.95;;;24.40;83.80;;;;;;4989713;28;20097;-69
2022/05/16 10:05:27;;;;;;;7.97;3.03;;;24.50;83.20;;;;;;4986827;28;20038;-68
2022/05/16 10:08:05;;;;;;;12.05;3.08;;;24.80;83.40;;;;;;4976602;28;20409;-69
2022/05/16 10:10:39;;;;;;;14.52;3.22;;;25.10;80.90;;;;;;4991706;28;20132;-68
2022/05/16 10:13:05;;;;;;;13.48;3.00;;;25.60;81.90;;;;;;4991433;28;20417;-69
2022/05/16 10:15:33;;;;;;;11.68;3.33;;;26.00;80.20;;;;;;4978362;28;20035;-69
2022/05/16 10:17:59;;;;;;;;;;;26.30;76.40;;;;;;4989155;28;20493;-69
2022/05/16 10:20:30;;;;;;;8.57;3.00;;;26.60;73.00;;;;;;4987687;28;19922;-69
2022/05/16 10:23:00;;;;;;;9.32;2.83;;;26.70;75.10;;;;;;4990305;28;20057;-71
2022/05/16 10:25:30;;;;;;;9.52;3.00;;;27.00;74.00;;;;;;4989336;28;20088;-69
2022/05/16 10:27:59;;;;;;;13.88;3.47;;;27.00;72.90;;;;;;4980251;28;20089;-68
2022/05/16 10:30:27;;;;;;;10.93;3.10;;;27.00;71.40;;;;;;4993205;28;20055;-68
2022/05/16 10:35:50;;;;;;;11.82;2.90;;;27.00;70.00;;;;;;4995376;28;20050;-69
2022/05/16 10:38:27;;;;;;;11.05;3.45;;;26.90;70.50;;;;;;5012891;28;20091;-69
2022/05/16 10:40:58;;;;;;;12.73;3.33;;;27.00;70.50;;;;;;5005142;28;20043;-69
2022/05/16 10:43:49;;;;;;;13.65;3.22;;;27.10;70.90;;;;;;4996244;28;20125;-68
2022/05/16 10:46:25;;;;;;;10.43;3.10;;;27.10;72.10;;;;;;4986780;28;20481;-68
2022/05/16 10:48:58;;;;;;;11.20;2.97;;;27.10;70.70;;;;;;5001013;28;20045;-68
2022/05/16 10:51:31;;;;;;;9.00;2.65;;;27.30;69.90;;;;;;4995794;28;20047;-69
2022/05/16 10:54:00;;;;;;;8.18;3.38;;;27.40;68.90;;;;;;5002438;28;20062;-69
2022/05/16 10:56:58;;;;;;;8.07;3.08;;;27.70;68.10;;;;;;5003451;28;20129;-69
2022/05/16 10:59:50;;;;;;;9.47;3.30;;;27.90;67.10;;;;;;4998884;28;20060;-68
2022/05/16 11:02:27;;;;;;;9.48;3.05;;;27.70;65.90;;;;;;5001410;28;20078;-68
2022/05/16 11:05:16;;;;;;;7.82;2.80;;;27.60;66.00;;;;;;4994606;28;20038;-68
2022/05/16 11:08:09;;;;;;;8.15;3.00;;;27.40;64.30;;;;;;4984499;28;20046;-69
2022/05/16 11:10:53;;;;;;;7.53;2.67;;;27.20;63.80;;;;;;4987425;28;20499;-68
2022/05/16 11:13:45;;;;;;;11.02;3.35;;;27.00;63.40;;;;;;4995164;28;20045;-68
2022/05/16 11:16:20;;;;;;;5.30;2.55;;;27.00;64.60;;;;;;4990789;28;20052;-68
2022/05/16 11:18:56;;;;;;;8.77;3.28;;;27.10;65.30;;;;;;4993279;28;20488;-68
2022/05/16 11:21:41;;;;;;;9.73;2.78;;;27.00;66.10;;;;;;4991694;28;20515;-68
2022/05/16 11:24:13;;;;;;;11.68;3.03;;;27.00;64.90;;;;;;4996194;28;20049;-69
2022/05/16 11:26:55;;;;;;;10.60;2.70;;;26.80;64.20;;;;;;4991821;28;20050;-70
2022/05/16 11:29:44;;;;;;;12.43;3.10;;;26.60;64.40;;;;;;4991690;28;20492;-69
2022/05/16 11:32:34;;;;;;;9.80;2.60;;;26.40;64.90;;;;;;4990308;28;20116;-69
2022/05/16 11:35:28;;;;;;;9.95;3.00;;;26.20;66.00;;;;;;4994245;28;20493;-69
2022/05/16 11:38:48;;;;;;;11.32;2.75;;;26.00;65.60;;;;;;4989385;28;20062;-69
2022/05/16 11:41:44;;;;;;;10.13;2.97;;;25.80;65.20;;;;;;4987862;28;20038;-69
2022/05/16 11:44:30;;;;;;;9.05;3.28;;;25.70;65.20;;;;;;4992304;28;20053;-68
2022/05/16 11:47:19;;;;;;;7.28;2.63;;;25.50;65.70;;;;;;4987715;28;20492;-69
2022/05/16 11:50:07;;;;;;;10.57;2.55;;;25.50;66.40;;;;;;4985803;28;20034;-68
2022/05/16 11:52:51;;;;;;;;;;;25.40;68.00;;;;;;4991740;28;20128;-70
2022/05/16 12:01:07;;;;;;;15.75;3.72;;;25.40;67.70;;;;;;4982552;28;20121;-70
2022/05/16 12:03:39;;;;;;;;;;;25.40;68.50;;;;;;4975593;28;20066;-69
2022/05/16 12:06:25;;;;;;;15.35;3.42;;;25.40;68.40;;;;;;4986836;28;20342;-68
2022/05/16 12:09:05;;;;;;;9.75;3.42;;;25.40;67.90;;;;;;4988136;28;20042;-68
2022/05/16 12:11:31;;;;;;;6.78;2.60;;;25.40;68.10;;;;;;4992263;28;20054;-68
2022/05/16 12:14:10;;;;;;;13.85;3.05;;;25.40;68.70;;;;;;4989633;28;20113;-68
2022/05/16 12:16:52;;;;;;;10.55;3.38;;;25.40;69.90;;;;;;4987649;28;20130;-68
2022/05/16 12:19:25;;;;;;;11.93;3.40;;;25.40;69.90;;;;;;4974500;28;20460;-69
2022/05/16 12:22:02;;;;;;;9.65;2.72;;;25.40;70.20;;;;;;4992027;28;20046;-69
2022/05/16 12:24:41;;;;;;;8.85;2.70;;;25.50;72.00;;;;;;4976554;28;20121;-69
2022/05/16 12:27:36;;;;;;;9.27;3.60;;;25.70;71.40;;;;;;4980025;28;20038;-69
2022/05/16 12:30:10;;;;;;;11.20;3.03;;;25.90;70.80;;;;;;4974139;28;20051;-68
2022/05/16 12:32:36;;;;;;;11.80;3.42;;;26.00;71.60;;;;;;4974130;28;20039;-70
2022/05/16 12:35:12;;;;;;;11.57;3.15;;;26.10;71.50;;;;;;4981325;28;20053;-69
2022/05/16 12:37:39;;;;;;;9.63;3.28;;;26.00;70.60;;;;;;4991660;28;20198;-68
2022/05/16 12:40:13;;;;;;;14.10;2.90;;;26.00;71.30;;;;;;4985248;28;20038;-69
2022/05/16 12:43:06;;;;;;;9.95;3.42;;;25.90;71.70;;;;;;4990086;28;20140;-68
2022/05/16 12:46:05;;;;;;;14.27;3.88;;;25.80;71.60;;;;;;4983451;28;20048;-68
2022/05/16 12:48:44;;;;;;;;;;;25.60;71.60;;;;;;4993211;28;20105;-68
2022/05/16 12:51:34;;;;;;;10.13;3.50;;;25.40;72.30;;;;;;4987623;28;19925;-69
2022/05/16 12:54:07;;;;;;;12.25;3.03;;;25.30;72.90;;;;;;4992359;28;20449;-69
2022/05/16 12:56:48;;;;;;;7.78;3.70;;;25.10;73.80;;;;;;4987415;28;20053;-68
2022/05/16 12:59:38;;;;;;;11.20;3.47;;;25.10;74.10;;;;;;4993065;28;20051;-69
2022/05/16 13:02:30;;;;;;;8.85;3.20;;;25.00;75.20;;;;;;4989266;28;20787;-69
2022/05/16 13:05:25;;;;;;;13.90;3.40;;;24.90;75.50;;;;;;4986538;28;20133;-69
2022/05/16 13:08:22;;;;;;;11.30;3.97;;;24.80;75.60;;;;;;4990819;28;20087;-67
2022/05/16 13:11:02;;;;;;;11.18;3.65;;;24.80;76.60;;;;;;4991835;28;20101;-68
2022/05/16 13:13:56;;;;;;;9.32;3.20;;;24.80;76.30;;;;;;4979209;28;20159;-70
2022/05/16 13:16:36;;;;;;;10.68;3.28;;;24.90;77.60;;;;;;4973349;28;20061;-69
2022/05/16 13:19:13;;;;;;;13.10;3.95;;;24.90;77.50;;;;;;4978657;28;20038;-69
2022/05/16 13:22:06;;;;;;;8.18;3.53;;;25.00;75.50;;;;;;4980889;28;20129;-69
2022/05/16 13:24:33;;;;;;;11.70;3.75;;;25.10;76.80;;;;;;4976094;28;20061;-69
2022/05/16 13:29:53;;;;;;;10.93;3.15;;;25.20;74.80;;;;;;4972555;28;20046;-70
2022/05/16 13:32:26;;;;;;;14.05;4.00;;;25.20;76.70;;;;;;4975409;28;20047;-68
2022/05/16 13:34:54;;;;;;;14.45;3.90;;;25.20;76.70;;;;;;4992471;28;20042;-69
2022/05/16 13:37:23;;;;;;;12.02;3.80;;;25.20;77.10;;;;;;4986760;28;20073;-69
2022/05/16 13:39:55;;;;;;;16.63;4.15;;;25.10;76.90;;;;;;4991208;28;20046;-69
2022/05/16 13:42:21;;;;;;;12.55;4.65;;;25.10;76.60;;;;;;4991994;28;20051;-68
2022/05/16 13:44:48;;;;;;;10.07;3.75;;;25.00;77.20;;;;;;4987265;28;20058;-68
2022/05/16 13:47:19;;;;;;;12.43;3.70;;;25.00;78.10;;;;;;4973329;28;20549;-69